Time;durP1;ratioP1;P1;durP2;ratioP2;P2;SDS_P1;SDS_P2;PMS_P1;PMS_P2;Temp;Humidity;BMP_temperature;BMP_pressure;BME280_temperature;BME280_humidity;BME280_pressure;Samples;Min_cycle;Max_cycle;Signal;HPM_P1;HPM_P2
2021/05/02 00:01:09;;;;;;;7.75;4.65;;;;;;;20.28;58.18;93929.77;827808;71;30139;-77
2021/05/02 00:16:15;;;;;;;6.72;4.00;;;;;;;20.22;58.42;93905.34;827210;71;32712;-77
2021/05/02 00:31:14;;;;;;;7.83;4.25;;;;;;;20.08;58.40;93903.84;827795;71;32655;-80
2021/05/02 00:46:19;;;;;;;7.40;4.20;;;;;;;19.71;59.29;93880.00;827879;71;32791;-77
2021/05/02 01:01:18;;;;;;;8.43;4.05;;;;;;;19.56;59.85;93836.98;833666;71;32746;-78
2021/05/02 01:16:17;;;;;;;7.30;4.00;;;;;;;19.36;60.01;93855.75;826995;71;32692;-79
2021/05/02 01:31:15;;;;;;;7.92;3.90;;;;;;;19.36;60.30;93848.30;833408;71;32702;-77
2021/05/02 01:46:21;;;;;;;7.12;4.15;;;;;;;19.29;60.70;93799.77;794945;74;32803;-78
2021/05/02 02:01:20;;;;;;;11.35;4.85;;;;;;;19.31;61.52;93837.42;827308;71;32699;-78
2021/05/02 02:16:29;;;;;;;7.28;4.10;;;;;;;19.16;62.15;93836.45;833181;71;32766;-81
2021/05/02 02:31:21;;;;;;;5.85;4.08;;;;;;;18.97;62.84;93812.04;833687;71;32690;-78
2021/05/02 02:46:18;;;;;;;13.78;5.10;;;;;;;18.73;63.85;93815.06;826627;71;32771;-77
2021/05/02 03:01:47;;;;;;;6.05;4.50;;;;;;;18.21;65.89;93835.84;835349;71;32774;-77
2021/05/02 03:16:08;;;;;;;7.42;4.97;;;;;;;18.03;66.83;93848.02;829656;71;29246;-77
2021/05/02 03:31:11;;;;;;;6.80;4.80;;;;;;;17.90;67.80;93857.43;834542;71;30046;-78
2021/05/02 03:46:25;;;;;;;8.63;4.92;;;;;;;18.25;66.84;93827.37;827793;71;32883;-77
2021/05/02 04:01:10;;;;;;;6.15;4.33;;;;;;;18.72;65.15;93828.92;827921;71;29942;-77
2021/05/02 04:16:08;;;;;;;8.28;4.45;;;;;;;19.07;64.47;93829.85;814474;71;30295;-77
2021/05/02 04:31:09;;;;;;;7.55;4.80;;;;;;;19.46;63.69;93843.69;834143;71;30265;-77
2021/05/02 04:46:15;;;;;;;9.20;5.17;;;;;;;20.76;60.44;93832.59;827536;71;33142;-79
2021/05/02 05:01:29;;;;;;;10.35;4.70;;;;;;;23.59;51.96;93835.38;834168;71;32760;-82
2021/05/02 05:16:09;;;;;;;9.07;4.77;;;;;;;24.74;48.37;93810.16;834395;71;30407;-79
2021/05/02 05:31:15;;;;;;;11.63;5.20;;;;;;;25.07;46.93;93829.45;834406;71;32646;-79
2021/05/02 05:46:13;;;;;;;7.60;5.03;;;;;;;25.95;45.41;93853.20;828726;71;29696;-78
2021/05/02 06:01:14;;;;;;;8.27;4.93;;;;;;;27.44;40.90;93829.16;828360;71;32732;-79
2021/05/02 06:16:16;;;;;;;6.73;4.90;;;;;;;26.23;41.87;93833.07;827869;71;32727;-79
2021/05/02 06:31:36;;;;;;;9.83;5.40;;;;;;;24.40;45.89;93832.19;828377;71;30799;-77
2021/05/02 06:46:30;;;;;;;9.60;5.23;;;;;;;23.90;46.27;93846.41;827719;71;33143;-78
2021/05/02 07:01:15;;;;;;;6.87;5.33;;;;;;;23.65;47.18;93821.78;835892;71;32728;-79
2021/05/02 07:16:09;;;;;;;13.07;5.27;;;;;;;23.87;46.90;93823.84;829356;71;29681;-78
2021/05/02 07:31:17;;;;;;;8.50;5.77;;;;;;;24.64;46.80;93850.48;827610;71;33153;-78
2021/05/02 07:46:09;;;;;;;8.07;4.90;;;;;;;24.49;47.53;93885.98;835725;71;29730;-81
2021/05/02 08:01:10;;;;;;;8.13;5.40;;;;;;;24.93;46.52;93879.98;828467;71;30443;-79
2021/05/02 08:16:09;;;;;;;8.70;4.70;;;;;;;25.67;41.09;93879.78;834362;71;29698;-78
2021/05/02 08:31:08;;;;;;;8.67;4.20;;;;;;;26.95;37.55;93883.42;829654;71;29740;-79
2021/05/02 08:46:09;;;;;;;13.63;4.83;;;;;;;;;;828766;71;30543;-77
2021/05/02 09:01:41;;;;;;;8.60;4.20;;;;;;;29.95;32.57;93883.11;830113;71;30946;-80
2021/05/02 09:16:08;;;;;;;10.13;4.47;;;;;;;31.80;30.25;93854.12;834427;71;30180;-77
2021/05/02 09:31:11;;;;;;;8.03;4.73;;;;;;;33.83;27.44;93835.16;828565;71;30293;-79
2021/05/02 09:46:40;;;;;;;10.60;4.17;;;;;;;35.11;24.87;93822.38;827736;71;32740;-79
2021/05/02 10:01:17;;;;;;;9.07;4.00;;;;;;;35.67;23.59;93821.45;827851;71;33161;-79
2021/05/02 10:16:14;;;;;;;9.00;3.83;;;;;;;36.02;23.40;93804.45;828666;71;30341;-79
2021/05/02 10:31:10;;;;;;;9.87;3.90;;;;;;;36.01;23.76;93782.44;828645;71;27641;-79
2021/05/02 10:46:12;;;;;;;10.33;4.00;;;;;;;35.95;23.48;93789.78;828677;71;28275;-79
2021/05/02 11:01:28;;;;;;;7.50;3.73;;;;;;;36.17;22.16;93760.13;827591;71;30756;-82
2021/05/02 11:16:25;;;;;;;9.70;3.40;;;;;;;36.14;21.57;93767.89;834300;71;28340;-78
2021/05/02 11:31:09;;;;;;;6.37;3.30;;;;;;;36.09;21.76;93753.52;828371;71;27600;-76
2021/05/02 11:46:17;;;;;;;5.67;3.23;;;;;;;35.62;20.40;93719.69;827466;71;31145;-80
2021/05/02 12:01:30;;;;;;;7.60;3.30;;;;;;;35.07;20.72;93703.89;828303;71;28308;-81
2021/05/02 12:16:26;;;;;;;9.40;4.27;;;;;;;34.70;22.40;93696.59;827628;71;30782;-78
2021/05/02 12:31:21;;;;;;;7.10;3.13;;;;;;;34.18;21.27;93706.82;833630;71;31183;-83
2021/05/02 12:46:40;;;;;;;8.60;3.67;;;;;;;33.31;22.36;93696.23;828742;71;30766;-79
2021/05/02 13:01:19;;;;;;;8.53;3.73;;;;;;;32.53;23.31;93691.45;828046;71;30782;-84
2021/05/02 13:16:11;;;;;;;9.77;3.20;;;;;;;32.42;22.73;93679.67;829753;71;30527;-79
2021/05/02 13:31:17;;;;;;;8.27;3.43;;;;;;;32.07;22.91;93688.59;821865;71;30906;-76
2021/05/02 13:46:08;;;;;;;9.83;3.83;;;;;;;31.77;22.84;93670.48;828674;71;27634;-77
2021/05/02 14:01:14;;;;;;;7.70;3.60;;;;;;;31.07;23.00;93697.74;828238;71;31772;-77
2021/05/02 14:16:08;;;;;;;7.10;4.20;;;;;;;30.77;23.71;93716.72;829238;71;28619;-78
2021/05/02 14:31:13;;;;;;;9.67;3.80;;;;;;;30.44;24.24;93720.31;829097;71;31532;-76
2021/05/02 14:46:15;;;;;;;9.03;4.70;;;;;;;29.91;24.51;93702.52;827951;71;30752;-74
2021/05/02 15:01:39;;;;;;;9.43;4.80;;;;;;;29.72;25.43;93700.77;829284;71;30329;-76
2021/05/02 15:16:15;;;;;;;10.63;3.70;;;;;;;29.59;25.68;93704.02;824143;71;32719;-74
2021/05/02 15:31:18;;;;;;;7.90;3.63;;;;;;;29.08;26.36;93709.41;833089;71;32677;-75
2021/05/02 15:46:09;;;;;;;11.70;3.57;;;;;;;28.72;26.84;93705.50;834525;71;30369;-75
2021/05/02 16:01:09;;;;;;;7.73;3.40;;;;;;;28.50;27.69;93706.02;828823;71;30197;-74
2021/05/02 16:16:10;;;;;;;9.73;4.60;;;;;;;28.32;27.70;93721.84;834220;71;30340;-75
2021/05/02 16:31:16;;;;;;;9.00;3.80;;;;;;;28.04;28.22;93735.37;820043;71;33181;-77
2021/05/02 16:46:09;;;;;;;7.90;4.10;;;;;;;27.70;28.73;93741.84;818034;70;30282;-81
2021/05/02 17:01:13;;;;;;;9.10;4.00;;;;;;;;;;819827;71;32839;-78
2021/05/02 17:16:13;;;;;;;11.30;4.60;;;;;;;26.83;31.11;93765.52;826051;71;31982;-78
2021/05/02 17:31:15;;;;;;;10.73;3.87;;;;;;;26.53;32.17;93783.84;827473;71;32674;-79
2021/05/02 17:46:10;;;;;;;12.13;5.27;;;;;;;26.12;32.94;93798.25;828390;71;29701;-77
2021/05/02 18:01:16;;;;;;;13.40;4.83;;;;;;;25.74;34.34;93823.83;819190;70;32849;-79
2021/05/02 18:16:14;;;;;;;15.97;5.20;;;;;;;25.35;34.39;93851.88;827704;71;32719;-81
2021/05/02 18:31:08;;;;;;;38.80;31.30;;;;;;;24.97;36.20;93859.23;828438;71;29838;-77
2021/05/02 18:46:14;;;;;;;31.03;27.30;;;;;;;24.69;38.46;93868.25;825173;70;33186;-79
2021/05/02 19:01:15;;;;;;;20.93;16.07;;;;;;;24.40;37.85;93891.20;833918;71;33098;-78
2021/05/02 19:16:08;;;;;;;12.47;9.83;;;;;;;24.15;38.56;93914.69;828752;71;29378;-77
2021/05/02 19:31:15;;;;;;;10.43;7.00;;;;;;;23.97;38.81;93941.55;834068;71;32784;-82
2021/05/02 19:46:17;;;;;;;13.30;5.30;;;;;;;23.68;38.30;93960.88;824256;71;32680;-81
2021/05/02 20:01:15;;;;;;;11.27;6.70;;;;;;;23.36;39.68;93966.45;820997;71;33272;-81
2021/05/02 20:16:08;;;;;;;10.70;4.93;;;;;;;22.99;38.97;93971.55;826442;71;29739;-80
2021/05/02 20:31:16;;;;;;;12.10;4.73;;;;;;;22.87;40.74;93987.17;820558;71;32776;-78
2021/05/02 20:46:10;;;;;;;5.97;3.97;;;;;;;22.81;38.37;93992.15;822360;71;30314;-78
2021/05/02 21:01:49;;;;;;;6.33;3.80;;;;;;;22.57;37.03;94001.62;827488;71;33190;-79
2021/05/02 21:16:30;;;;;;;9.70;3.63;;;;;;;22.56;38.22;93997.40;825250;71;32774;-76
2021/05/02 21:31:16;;;;;;;8.27;3.50;;;;;;;22.47;39.04;94000.42;827719;71;32992;-77
2021/05/02 21:46:10;;;;;;;8.58;4.00;;;;;;;22.42;39.11;93998.67;828595;71;30558;-79
2021/05/02 22:01:15;;;;;;;6.90;3.73;;;;;;;22.36;38.64;94017.77;821969;71;32852;-77
2021/05/02 22:16:18;;;;;;;8.57;4.10;;;;;;;22.28;36.70;94038.13;834327;71;31985;-78
2021/05/02 22:31:10;;;;;;;6.75;3.40;;;;;;;22.14;37.12;94033.43;828347;71;28841;-76
2021/05/02 22:46:08;;;;;;;7.83;3.50;;;;;;;21.89;35.89;94055.41;828518;71;29826;-77
2021/05/02 23:01:11;;;;;;;6.87;2.87;;;;;;;21.71;35.26;94053.93;828637;71;28349;-77
2021/05/02 23:16:11;;;;;;;8.83;2.92;;;;;;;21.50;35.01;94067.11;828498;71;28841;-78
2021/05/02 23:31:08;;;;;;;4.80;2.75;;;;;;;21.34;34.78;94085.42;828265;71;28698;-78
2021/05/02 23:46:16;;;;;;;7.12;2.35;;;;;;;21.19;35.00;94097.09;834410;71;31721;-77
